Time;durP1;ratioP1;P1;durP2;ratioP2;P2;SDS_P1;SDS_P2;PMS_P1;PMS_P2;Temp;Humidity;BMP_temperature;BMP_pressure;BME280_temperature;BME280_humidity;BME280_pressure;Samples;Min_cycle;Max_cycle;Signal;HPM_P1;HPM_P2
2021/08/05 00:01:08;;;;;;;;;;;23.20;96.70;;;;;;4900103;29;20354;-71
2021/08/05 00:04:07;;;;;;;4.20;1.85;;;23.20;96.70;;;;;;4929390;29;19926;-72
2021/08/05 00:06:36;;;;;;;3.25;1.35;;;23.20;96.70;;;;;;4901345;29;20078;-71
2021/08/05 00:09:13;;;;;;;6.18;1.75;;;23.10;96.70;;;;;;4892447;29;20048;-71
2021/08/05 00:11:42;;;;;;;4.57;1.42;;;23.10;96.70;;;;;;4929077;28;20496;-72
2021/08/05 00:14:12;;;;;;;3.22;1.40;;;23.00;96.70;;;;;;4913456;28;20417;-71
2021/08/05 00:16:43;;;;;;;3.88;1.30;;;23.00;96.70;;;;;;4894625;29;20047;-71
2021/08/05 00:19:14;;;;;;;4.53;1.45;;;23.00;96.70;;;;;;4900557;29;20048;-71
2021/08/05 00:21:44;;;;;;;5.65;2.10;;;23.10;96.70;;;;;;4883453;29;20601;-71
2021/08/05 00:24:14;;;;;;;4.55;1.40;;;23.20;96.70;;;;;;4930346;28;20065;-71
2021/08/05 00:26:44;;;;;;;3.97;1.27;;;23.30;96.70;;;;;;4900392;29;20048;-71
2021/08/05 00:29:14;;;;;;;4.75;1.40;;;23.30;96.70;;;;;;4913845;28;20052;-71
2021/08/05 00:31:45;;;;;;;6.65;1.67;;;23.30;96.70;;;;;;4900291;29;20107;-71
2021/08/05 00:34:13;;;;;;;3.08;1.05;;;23.20;96.70;;;;;;4882223;29;20211;-71
2021/08/05 00:40:13;;;;;;;4.07;1.23;;;23.20;96.70;;;;;;4898677;29;20096;-71
2021/08/05 00:42:42;;;;;;;5.13;1.50;;;23.10;96.70;;;;;;4899592;29;20388;-72
2021/08/05 00:45:12;;;;;;;3.83;1.27;;;23.00;96.70;;;;;;4902050;29;20088;-71
2021/08/05 00:47:44;;;;;;;3.85;1.10;;;23.00;96.70;;;;;;4897516;29;20055;-71
2021/08/05 00:50:14;;;;;;;3.97;1.05;;;23.00;96.70;;;;;;4899634;29;20186;-71
2021/08/05 00:53:32;;;;;;;4.03;1.10;;;22.90;96.70;;;;;;4913703;28;20059;-71
2021/08/05 00:56:00;;;;;;;4.40;1.30;;;22.80;96.70;;;;;;4898737;29;20191;-71
2021/08/05 00:58:29;;;;;;;5.75;1.30;;;22.80;96.70;;;;;;4929106;28;20856;-71
2021/08/05 01:01:03;;;;;;;5.22;1.48;;;22.80;96.70;;;;;;4915259;28;20079;-71
2021/08/05 01:03:36;;;;;;;4.88;1.30;;;22.80;96.70;;;;;;4896189;29;20550;-72
2021/08/05 01:06:15;;;;;;;5.07;1.13;;;22.80;96.70;;;;;;4898369;29;20047;-71
2021/08/05 01:08:49;;;;;;;7.18;1.00;;;22.80;96.70;;;;;;4926641;28;20529;-71
2021/08/05 01:11:23;;;;;;;4.47;1.35;;;22.90;96.70;;;;;;4898653;29;20052;-71
2021/08/05 01:13:56;;;;;;;4.90;1.10;;;23.00;96.70;;;;;;4884835;29;20536;-71
2021/08/05 01:16:28;;;;;;;4.47;1.27;;;23.00;96.70;;;;;;4902273;29;20044;-71
2021/08/05 01:19:22;;;;;;;4.22;1.25;;;23.00;96.70;;;;;;4901889;29;20458;-71
2021/08/05 01:21:57;;;;;;;4.28;1.30;;;23.10;96.70;;;;;;4915681;29;20071;-71
2021/08/05 01:24:29;;;;;;;3.78;1.05;;;23.00;96.70;;;;;;4917349;28;20076;-71
2021/08/05 01:27:00;;;;;;;5.22;1.15;;;23.10;96.70;;;;;;4885166;29;20215;-71
2021/08/05 01:29:33;;;;;;;6.22;1.65;;;23.10;96.70;;;;;;4901394;29;20056;-71
2021/08/05 01:32:04;;;;;;;5.18;1.63;;;23.10;96.70;;;;;;4900196;29;20055;-71
2021/08/05 01:34:36;;;;;;;5.57;1.40;;;23.00;96.70;;;;;;4902383;29;20123;-71
2021/08/05 01:37:09;;;;;;;3.10;1.02;;;22.80;96.70;;;;;;4903542;29;20052;-71
2021/08/05 01:39:43;;;;;;;5.03;1.20;;;22.70;96.70;;;;;;4899888;29;20091;-71
2021/08/05 01:42:21;;;;;;;4.93;1.27;;;22.60;96.70;;;;;;4901729;29;20040;-71
2021/08/05 01:44:53;;;;;;;3.35;1.65;;;22.70;96.70;;;;;;4915260;29;20062;-71
2021/08/05 01:47:22;;;;;;;8.38;2.10;;;22.50;96.70;;;;;;4902468;29;20055;-71
2021/08/05 01:49:51;;;;;;;10.95;2.30;;;22.50;96.70;;;;;;4901469;29;20055;-71
2021/08/05 01:52:21;;;;;;;6.63;1.85;;;22.20;96.70;;;;;;4914133;29;20052;-71
2021/08/05 01:54:49;;;;;;;8.02;1.92;;;22.10;96.70;;;;;;4885401;29;20135;-71
2021/08/05 01:57:19;;;;;;;6.28;1.73;;;22.10;96.70;;;;;;4902608;29;20040;-72
2021/08/05 01:59:47;;;;;;;3.47;1.38;;;22.00;96.70;;;;;;4899902;29;20052;-71
2021/08/05 02:02:16;;;;;;;4.93;1.45;;;22.00;96.70;;;;;;4903703;29;20484;-71
2021/08/05 02:04:53;;;;;;;3.83;1.60;;;22.10;96.70;;;;;;4902608;29;20056;-71
2021/08/05 02:07:25;;;;;;;7.10;2.17;;;22.10;96.70;;;;;;4901798;29;20422;-72
2021/08/05 02:10:00;;;;;;;8.43;2.17;;;22.10;96.70;;;;;;4920710;29;20051;-70
2021/08/05 02:12:33;;;;;;;6.22;2.35;;;22.20;96.70;;;;;;4901178;29;20313;-70
2021/08/05 02:15:03;;;;;;;8.02;2.22;;;22.20;96.70;;;;;;4915259;28;20052;-70
2021/08/05 02:17:35;;;;;;;10.48;2.47;;;22.30;96.70;;;;;;4906048;29;20052;-70
2021/08/05 02:20:07;;;;;;;15.70;2.63;;;22.30;96.70;;;;;;4899653;29;20544;-69
2021/08/05 02:22:39;;;;;;;11.50;3.00;;;22.30;96.70;;;;;;4900191;29;20063;-72
2021/08/05 02:25:11;;;;;;;10.20;2.78;;;22.20;96.70;;;;;;4900756;29;20143;-72
2021/08/05 02:27:47;;;;;;;;;;;22.10;96.70;;;;;;4901256;29;20147;-72
2021/08/05 02:30:16;;;;;;;7.20;1.92;;;22.20;96.70;;;;;;4901704;29;19926;-72
2021/08/05 02:36:33;;;;;;;6.13;1.90;;;22.30;96.70;;;;;;4926748;28;20510;-72
2021/08/05 02:39:02;;;;;;;5.40;1.92;;;22.20;96.70;;;;;;4914429;28;20055;-72
2021/08/05 02:41:31;;;;;;;9.50;2.42;;;22.20;96.70;;;;;;4915433;28;20086;-71
2021/08/05 02:44:04;;;;;;;11.40;2.50;;;22.20;96.70;;;;;;4897877;29;20044;-72
2021/08/05 02:46:35;;;;;;;7.90;2.15;;;22.20;96.70;;;;;;4930929;28;20668;-72
2021/08/05 02:49:04;;;;;;;7.22;2.30;;;22.20;96.70;;;;;;4900417;29;20056;-72
2021/08/05 02:52:19;;;;;;;5.30;1.40;;;22.10;96.70;;;;;;4900383;29;20049;-70
2021/08/05 02:54:47;;;;;;;6.68;1.98;;;21.90;96.70;;;;;;4915308;29;20052;-72
2021/08/05 02:57:17;;;;;;;5.82;1.88;;;21.90;96.70;;;;;;4899867;29;20341;-72
2021/08/05 02:59:49;;;;;;;4.35;1.85;;;21.90;96.70;;;;;;4930827;28;20048;-72
2021/08/05 03:02:17;;;;;;;9.32;1.67;;;21.80;96.70;;;;;;4900312;29;20036;-72
2021/08/05 03:04:47;;;;;;;6.97;2.08;;;21.90;96.70;;;;;;4901192;29;20127;-72
2021/08/05 03:07:16;;;;;;;7.93;2.22;;;21.90;96.70;;;;;;4900571;29;20494;-72
2021/08/05 03:09:45;;;;;;;5.88;1.88;;;21.90;96.70;;;;;;4911876;28;20091;-71
2021/08/05 03:15:51;;;;;;;11.05;2.60;;;21.80;96.70;;;;;;4928712;28;20703;-71
2021/08/05 03:18:20;;;;;;;7.40;1.67;;;21.90;96.70;;;;;;4900420;29;20040;-72
2021/08/05 03:20:48;;;;;;;6.32;2.08;;;21.90;96.70;;;;;;4901554;29;20044;-71
2021/08/05 03:23:16;;;;;;;9.30;2.35;;;22.00;96.70;;;;;;4902256;29;20052;-71
2021/08/05 03:25:45;;;;;;;7.90;1.88;;;22.00;96.70;;;;;;4901402;29;20044;-72
2021/08/05 03:28:13;;;;;;;5.80;1.70;;;21.90;96.70;;;;;;4900515;29;20056;-72
2021/08/05 03:30:41;;;;;;;6.32;1.70;;;21.90;96.70;;;;;;4895334;29;20297;-72
2021/08/05 03:33:11;;;;;;;7.78;2.10;;;21.90;96.70;;;;;;4901905;29;20159;-72
2021/08/05 03:35:39;;;;;;;7.80;1.90;;;21.90;96.70;;;;;;4906430;29;20138;-71
2021/08/05 03:38:08;;;;;;;6.22;2.33;;;21.90;96.70;;;;;;4905480;29;20040;-72
2021/08/05 03:40:36;;;;;;;5.28;1.77;;;21.90;96.70;;;;;;4889415;29;20559;-72
2021/08/05 03:43:04;;;;;;;8.35;1.90;;;21.90;96.70;;;;;;4905204;29;20050;-72
2021/08/05 03:45:35;;;;;;;6.03;2.17;;;21.90;96.70;;;;;;4904852;29;20079;-72
2021/08/05 03:48:05;;;;;;;10.18;3.00;;;21.90;96.70;;;;;;4906515;29;20040;-72
2021/08/05 03:50:35;;;;;;;5.90;2.10;;;21.90;96.70;;;;;;4906035;29;20044;-72
2021/08/05 03:53:12;;;;;;;8.88;2.42;;;21.90;96.70;;;;;;4907468;29;20516;-71
2021/08/05 03:55:41;;;;;;;7.88;2.58;;;21.90;96.70;;;;;;4903135;29;20581;-72
2021/08/05 03:58:10;;;;;;;9.60;2.42;;;21.90;96.70;;;;;;4906209;29;20055;-72
2021/08/05 04:00:39;;;;;;;12.27;2.88;;;21.90;96.70;;;;;;4902963;29;20124;-71
2021/08/05 04:03:08;;;;;;;7.55;2.55;;;21.90;96.70;;;;;;4922618;28;20092;-72
2021/08/05 04:05:38;;;;;;;11.82;2.67;;;21.90;96.70;;;;;;4903945;29;20040;-72
2021/08/05 04:08:06;;;;;;;9.63;2.33;;;22.00;96.70;;;;;;4934261;28;20415;-71
2021/08/05 04:10:34;;;;;;;7.03;2.60;;;21.90;96.70;;;;;;4905991;29;20704;-72
2021/08/05 04:13:03;;;;;;;7.63;2.13;;;22.00;96.70;;;;;;4906352;29;20044;-72
2021/08/05 04:15:31;;;;;;;11.90;2.45;;;22.00;96.70;;;;;;4906526;29;20506;-71
2021/08/05 04:18:00;;;;;;;10.77;2.50;;;22.00;96.70;;;;;;4888932;29;20248;-71
2021/08/05 04:20:28;;;;;;;10.75;3.35;;;21.90;96.70;;;;;;4919389;29;20048;-71
2021/08/05 04:22:58;;;;;;;7.28;2.90;;;22.00;96.70;;;;;;4901746;29;20048;-71
2021/08/05 04:25:26;;;;;;;9.15;2.22;;;22.00;96.70;;;;;;4905581;29;20347;-71
2021/08/05 04:27:54;;;;;;;13.00;3.40;;;22.00;96.70;;;;;;4904654;29;20048;-71
2021/08/05 04:30:25;;;;;;;6.88;2.55;;;22.00;96.70;;;;;;4938753;28;20503;-72
2021/08/05 04:32:53;;;;;;;7.00;2.50;;;22.00;96.70;;;;;;4903614;29;20044;-72
2021/08/05 04:35:22;;;;;;;10.48;2.60;;;22.00;96.70;;;;;;4906452;29;20048;-72
2021/08/05 04:37:51;;;;;;;9.73;2.72;;;22.00;96.70;;;;;;4905150;29;20432;-71
2021/08/05 04:40:23;;;;;;;6.43;2.47;;;22.00;96.70;;;;;;4906951;29;20064;-72
2021/08/05 04:42:51;;;;;;;5.97;2.20;;;22.00;96.70;;;;;;4906834;29;20457;-72
2021/08/05 04:45:20;;;;;;;9.65;2.63;;;21.90;96.70;;;;;;4908355;29;20414;-72
2021/08/05 04:47:54;;;;;;;10.65;3.38;;;21.90;96.70;;;;;;4895372;29;20332;-72
2021/08/05 04:50:23;;;;;;;8.35;2.38;;;21.90;96.70;;;;;;4904899;29;20418;-72
2021/08/05 04:52:51;;;;;;;7.28;2.58;;;21.80;96.70;;;;;;4900562;29;20534;-71
2021/08/05 04:55:21;;;;;;;7.05;2.80;;;21.80;96.70;;;;;;4909252;29;20040;-71
2021/08/05 04:57:51;;;;;;;12.68;3.03;;;21.80;96.70;;;;;;4908553;29;20048;-72
2021/08/05 05:00:24;;;;;;;6.60;2.15;;;21.90;96.70;;;;;;4905481;29;20783;-72
2021/08/05 05:02:52;;;;;;;8.00;2.40;;;21.90;96.70;;;;;;4908033;29;20044;-71
2021/08/05 05:05:21;;;;;;;8.88;3.03;;;21.90;96.70;;;;;;4910817;29;20598;-72
2021/08/05 05:07:50;;;;;;;8.50;2.80;;;22.00;96.70;;;;;;4909377;29;20099;-71
2021/08/05 05:10:22;;;;;;;10.25;2.95;;;22.00;96.70;;;;;;4911521;29;20075;-71
2021/08/05 05:12:50;;;;;;;10.13;2.58;;;22.00;96.70;;;;;;4919868;29;20506;-72
2021/08/05 05:15:19;;;;;;;11.07;2.72;;;22.10;96.70;;;;;;4908366;29;20043;-71
2021/08/05 05:17:47;;;;;;;9.50;2.13;;;22.10;96.70;;;;;;4906882;29;20103;-71
2021/08/05 05:20:16;;;;;;;9.38;2.38;;;22.20;96.70;;;;;;4911531;29;20558;-71
2021/08/05 05:22:44;;;;;;;7.10;2.28;;;22.20;96.70;;;;;;4909265;29;20553;-72
2021/08/05 05:25:12;;;;;;;9.43;2.42;;;22.30;96.70;;;;;;4910289;29;20376;-72
2021/08/05 05:27:43;;;;;;;7.97;2.47;;;22.30;96.70;;;;;;4908367;29;20126;-72
2021/08/05 05:30:12;;;;;;;7.38;2.13;;;22.30;96.70;;;;;;4904005;29;20052;-72
2021/08/05 05:32:43;;;;;;;9.02;2.40;;;22.40;96.70;;;;;;4908641;29;20411;-72
2021/08/05 05:35:12;;;;;;;10.20;2.80;;;22.40;96.70;;;;;;4909752;29;20055;-72
2021/08/05 05:37:40;;;;;;;8.52;2.50;;;22.40;96.70;;;;;;4910269;29;20173;-71
2021/08/05 05:40:10;;;;;;;6.50;2.10;;;22.40;96.70;;;;;;4907399;29;20111;-71
2021/08/05 05:42:39;;;;;;;9.98;2.47;;;22.50;96.70;;;;;;4908993;29;20064;-71
2021/08/05 05:45:10;;;;;;;7.32;2.35;;;22.50;96.70;;;;;;4926657;28;20052;-71
2021/08/05 05:47:38;;;;;;;8.65;2.30;;;22.50;96.70;;;;;;4910038;29;20558;-71
2021/08/05 05:50:09;;;;;;;7.95;2.50;;;22.50;96.70;;;;;;4910976;29;20277;-71
2021/08/05 05:52:38;;;;;;;10.25;2.22;;;22.60;96.70;;;;;;4908473;29;20142;-74
2021/08/05 05:55:08;;;;;;;10.85;2.35;;;22.70;96.70;;;;;;4909094;29;20146;-74
2021/08/05 05:57:36;;;;;;;9.70;3.65;;;22.70;96.70;;;;;;4904207;29;20056;-74
2021/08/05 06:00:05;;;;;;;10.70;2.40;;;22.70;96.70;;;;;;4906568;29;20036;-75
2021/08/05 06:02:41;;;;;;;8.90;2.63;;;22.70;96.70;;;;;;4910088;29;20047;-74
2021/08/05 06:05:10;;;;;;;9.05;2.28;;;22.70;96.70;;;;;;4905128;29;20059;-74
2021/08/05 06:07:46;;;;;;;9.02;2.10;;;22.70;96.70;;;;;;4908318;29;20088;-71
2021/08/05 06:10:16;;;;;;;6.65;2.40;;;22.80;96.70;;;;;;4906507;29;20146;-72
2021/08/05 06:12:44;;;;;;;10.05;2.22;;;22.80;96.70;;;;;;4901402;29;20163;-72
2021/08/05 06:15:14;;;;;;;10.63;2.35;;;22.90;96.70;;;;;;4905645;29;20040;-72
2021/08/05 06:17:45;;;;;;;12.13;2.80;;;22.80;96.70;;;;;;4909476;29;20437;-72
2021/08/05 06:20:16;;;;;;;8.88;2.30;;;22.90;96.70;;;;;;4908550;29;23728;-73
2021/08/05 06:22:45;;;;;;;10.20;2.40;;;22.90;96.70;;;;;;4908648;29;20067;-72
2021/08/05 06:25:15;;;;;;;11.10;2.63;;;22.90;96.70;;;;;;4903118;29;20136;-73
2021/08/05 06:27:43;;;;;;;8.93;2.75;;;22.90;96.70;;;;;;4908055;29;20835;-74
2021/08/05 06:30:13;;;;;;;9.07;2.95;;;23.00;96.70;;;;;;4907480;29;20056;-73
2021/08/05 06:32:42;;;;;;;11.32;2.42;;;23.00;96.70;;;;;;4908237;29;20040;-72
2021/08/05 06:35:11;;;;;;;8.52;2.35;;;23.00;96.70;;;;;;4920451;29;20028;-73
2021/08/05 06:37:39;;;;;;;9.45;2.22;;;22.90;96.70;;;;;;4922638;29;20051;-72
2021/08/05 06:40:08;;;;;;;10.05;2.28;;;23.00;96.70;;;;;;4905569;29;20043;-72
2021/08/05 06:42:37;;;;;;;9.65;2.20;;;23.00;96.70;;;;;;4905630;29;20044;-72
2021/08/05 06:45:07;;;;;;;9.98;2.58;;;23.10;96.70;;;;;;4908358;29;20036;-72
2021/08/05 06:47:38;;;;;;;7.45;2.33;;;23.10;96.70;;;;;;4922008;28;20091;-73
2021/08/05 06:50:09;;;;;;;10.68;2.13;;;23.20;96.70;;;;;;4907961;29;20047;-73
2021/08/05 06:52:37;;;;;;;9.15;2.30;;;23.20;96.70;;;;;;4905819;29;20040;-72
2021/08/05 06:55:06;;;;;;;9.73;2.40;;;23.10;96.70;;;;;;4908976;29;20076;-72
2021/08/05 06:57:34;;;;;;;8.18;2.10;;;23.10;96.70;;;;;;4906156;29;20040;-72
2021/08/05 07:00:03;;;;;;;9.20;2.63;;;23.10;96.70;;;;;;4908886;29;20047;-72
2021/08/05 07:02:31;;;;;;;9.75;2.42;;;23.20;96.70;;;;;;4903313;29;20337;-72
2021/08/05 07:05:04;;;;;;;14.55;3.20;;;23.20;96.70;;;;;;4911967;29;20047;-72
2021/08/05 07:07:33;;;;;;;8.32;2.60;;;23.20;96.70;;;;;;4906701;29;20040;-73
2021/08/05 07:10:02;;;;;;;7.35;2.33;;;23.30;96.70;;;;;;4908026;29;20103;-72
2021/08/05 07:12:31;;;;;;;7.07;2.55;;;23.40;96.70;;;;;;4907611;29;20075;-73
2021/08/05 07:14:59;;;;;;;10.38;2.95;;;23.40;96.70;;;;;;4908217;29;20044;-72
2021/08/05 07:17:27;;;;;;;13.00;2.83;;;23.40;96.70;;;;;;4906308;29;20051;-73
2021/08/05 07:19:55;;;;;;;7.97;2.33;;;23.50;96.70;;;;;;4907824;29;20039;-72
2021/08/05 07:22:23;;;;;;;11.90;2.88;;;23.60;96.70;;;;;;4906522;29;20063;-73
2021/08/05 07:24:53;;;;;;;8.52;2.28;;;23.60;96.70;;;;;;4909616;29;20055;-73
2021/08/05 07:27:20;;;;;;;10.68;2.60;;;23.60;96.70;;;;;;4907299;29;20063;-73
2021/08/05 07:29:48;;;;;;;10.15;2.05;;;23.70;96.70;;;;;;4907067;29;20080;-73
2021/08/05 07:32:16;;;;;;;7.60;2.40;;;23.60;96.70;;;;;;4922065;28;20059;-73
2021/08/05 07:34:45;;;;;;;7.38;2.03;;;23.60;96.70;;;;;;4907764;29;20052;-73
2021/08/05 07:37:13;;;;;;;11.98;2.50;;;23.60;96.70;;;;;;4904175;29;20119;-73
2021/08/05 07:39:41;;;;;;;10.45;2.10;;;23.60;96.70;;;;;;4922287;28;20115;-74
2021/08/05 07:42:10;;;;;;;6.88;2.28;;;23.60;96.70;;;;;;4906663;29;20111;-75
2021/08/05 07:44:38;;;;;;;9.07;2.22;;;23.70;96.70;;;;;;4908427;29;20428;-75
2021/08/05 07:47:07;;;;;;;11.30;2.38;;;23.80;96.70;;;;;;4906325;29;20048;-74
2021/08/05 07:49:35;;;;;;;9.25;1.90;;;23.90;96.70;;;;;;4907413;29;20095;-72
2021/08/05 07:52:04;;;;;;;8.85;2.55;;;24.00;96.70;;;;;;4906443;29;20055;-72
2021/08/05 07:54:33;;;;;;;8.13;2.28;;;24.10;96.70;;;;;;4906358;29;20521;-72
2021/08/05 07:57:01;;;;;;;9.07;1.95;;;24.20;96.70;;;;;;4933198;28;20059;-72
2021/08/05 07:59:31;;;;;;;7.43;1.90;;;24.40;96.70;;;;;;4904650;29;20455;-72
2021/08/05 08:01:59;;;;;;;6.07;1.60;;;24.20;96.70;;;;;;4919282;29;20115;-72
2021/08/05 08:04:28;;;;;;;8.95;2.03;;;24.10;96.70;;;;;;4913184;29;20486;-73
2021/08/05 08:06:56;;;;;;;9.55;2.17;;;24.10;96.70;;;;;;4906697;29;20503;-73
2021/08/05 08:09:25;;;;;;;7.45;2.13;;;24.30;96.70;;;;;;4905006;29;20156;-73
2021/08/05 08:11:54;;;;;;;8.77;1.92;;;24.30;96.70;;;;;;4919578;29;20075;-73
2021/08/05 08:14:23;;;;;;;10.63;2.53;;;24.30;96.70;;;;;;4907512;29;20541;-73
2021/08/05 08:16:54;;;;;;;8.32;2.58;;;24.20;96.70;;;;;;4906400;29;20450;-73
2021/08/05 08:19:23;;;;;;;7.30;2.15;;;24.20;96.70;;;;;;4905505;29;20415;-73
2021/08/05 08:21:51;;;;;;;9.82;2.42;;;24.30;96.70;;;;;;4924287;29;20083;-73
2021/08/05 08:24:21;;;;;;;11.43;2.67;;;24.30;96.70;;;;;;4910430;29;20043;-73
2021/08/05 08:26:49;;;;;;;8.10;2.08;;;24.30;96.70;;;;;;4911847;29;20110;-73
2021/08/05 08:29:17;;;;;;;6.63;2.10;;;24.40;96.70;;;;;;4904988;29;20480;-73
2021/08/05 08:31:48;;;;;;;11.35;1.92;;;24.60;96.70;;;;;;4922391;28;20603;-73
2021/08/05 08:34:18;;;;;;;9.20;2.42;;;24.60;96.70;;;;;;4907657;29;20059;-73
2021/08/05 08:36:46;;;;;;;8.30;2.45;;;24.70;96.70;;;;;;4938171;28;20066;-73
2021/08/05 08:39:15;;;;;;;7.85;1.83;;;24.90;96.70;;;;;;4910184;29;20051;-73
2021/08/05 08:41:43;;;;;;;7.15;2.15;;;24.90;96.70;;;;;;4911228;29;20046;-73
2021/08/05 08:44:13;;;;;;;8.82;2.03;;;25.00;96.70;;;;;;4894620;29;20071;-73
2021/08/05 08:46:45;;;;;;;10.70;2.17;;;25.00;96.70;;;;;;4909793;29;20574;-72
2021/08/05 08:49:14;;;;;;;8.13;2.40;;;24.90;96.70;;;;;;4908569;29;20115;-73
2021/08/05 08:51:46;;;;;;;7.40;1.85;;;25.00;96.70;;;;;;4893895;29;20056;-73
2021/08/05 08:54:14;;;;;;;9.65;1.90;;;25.10;96.70;;;;;;4906646;29;20044;-72
2021/08/05 08:56:45;;;;;;;8.50;2.42;;;25.00;96.70;;;;;;4924741;28;20052;-73
2021/08/05 08:59:13;;;;;;;10.00;2.13;;;25.00;96.70;;;;;;4910747;29;20071;-73
2021/08/05 09:01:42;;;;;;;9.52;2.05;;;25.10;96.70;;;;;;4909881;29;20056;-73
2021/08/05 09:04:10;;;;;;;8.25;1.92;;;25.20;96.70;;;;;;4910324;29;20032;-74
2021/08/05 09:06:40;;;;;;;6.80;1.88;;;25.20;96.70;;;;;;4893340;29;20159;-72
2021/08/05 09:09:11;;;;;;;8.20;2.33;;;25.20;96.70;;;;;;4909327;29;20055;-73
2021/08/05 09:11:39;;;;;;;12.75;1.95;;;25.40;96.70;;;;;;4908560;29;20139;-73
2021/08/05 09:14:07;;;;;;;7.63;1.90;;;25.40;96.70;;;;;;4910229;29;20117;-72
2021/08/05 09:16:36;;;;;;;6.75;1.73;;;25.40;96.70;;;;;;4907756;29;20056;-73
2021/08/05 09:19:09;;;;;;;9.75;2.15;;;25.50;96.70;;;;;;4938011;28;20055;-72
2021/08/05 09:21:46;;;;;;;13.25;2.70;;;25.40;96.70;;;;;;4908269;29;20055;-73
2021/08/05 09:24:16;;;;;;;8.35;2.13;;;25.40;96.70;;;;;;4894887;29;20071;-72
2021/08/05 09:26:46;;;;;;;7.53;2.00;;;25.40;96.70;;;;;;4923678;28;20454;-72
2021/08/05 09:29:17;;;;;;;9.68;2.10;;;25.50;96.70;;;;;;4909914;29;20546;-73
2021/08/05 09:31:47;;;;;;;10.85;2.55;;;25.60;96.70;;;;;;4906882;29;20139;-72
2021/08/05 09:34:17;;;;;;;8.50;2.15;;;25.60;96.70;;;;;;4910657;29;20487;-73
2021/08/05 09:36:47;;;;;;;10.75;2.00;;;25.50;96.70;;;;;;4907315;29;20454;-72
2021/08/05 09:39:22;;;;;;;7.03;2.17;;;25.40;96.70;;;;;;4910649;29;20063;-72
2021/08/05 09:41:52;;;;;;;9.73;2.05;;;25.40;96.70;;;;;;4890988;29;20435;-73
2021/08/05 09:44:21;;;;;;;10.43;2.05;;;25.60;96.70;;;;;;4910095;29;20044;-73
2021/08/05 09:47:04;;;;;;;9.73;2.08;;;25.70;96.70;;;;;;4908378;29;20052;-73
2021/08/05 09:49:34;;;;;;;6.18;1.25;;;25.70;96.70;;;;;;4903324;29;20097;-73
2021/08/05 09:52:09;;;;;;;9.10;2.15;;;25.70;96.70;;;;;;4906903;29;20055;-73
2021/08/05 09:54:41;;;;;;;5.40;1.92;;;25.70;96.70;;;;;;4909606;29;20048;-72
2021/08/05 09:57:12;;;;;;;7.25;1.80;;;25.80;96.70;;;;;;4917727;29;20538;-73
2021/08/05 09:59:54;;;;;;;7.63;1.60;;;25.90;96.70;;;;;;4922379;29;20044;-73
2021/08/05 10:02:25;;;;;;;4.80;1.63;;;26.20;96.70;;;;;;4905124;29;20048;-73
2021/08/05 10:04:54;;;;;;;8.10;1.73;;;26.10;96.70;;;;;;4909289;29;20560;-72
2021/08/05 10:07:22;;;;;;;9.52;1.98;;;26.10;96.70;;;;;;4909825;29;20040;-73
2021/08/05 10:09:58;;;;;;;11.30;2.33;;;25.90;96.70;;;;;;4907551;29;20462;-72
2021/08/05 10:12:32;;;;;;;;;;;26.10;96.70;;;;;;4909162;29;20107;-72
2021/08/05 10:15:07;;;;;;;11.32;2.50;;;26.20;96.70;;;;;;4906725;29;19933;-73
2021/08/05 10:17:37;;;;;;;6.35;2.03;;;26.10;96.70;;;;;;4909569;29;20453;-73
2021/08/05 10:20:08;;;;;;;9.88;1.90;;;26.00;96.70;;;;;;4902740;29;20071;-74
2021/08/05 10:22:37;;;;;;;10.20;1.88;;;26.00;96.70;;;;;;4910010;29;20052;-73
2021/08/05 10:25:09;;;;;;;8.77;2.08;;;26.10;96.70;;;;;;4903368;29;20048;-73
2021/08/05 10:27:37;;;;;;;9.43;2.22;;;26.20;96.70;;;;;;4909620;29;20076;-72
2021/08/05 10:30:10;;;;;;;9.50;1.92;;;26.40;96.70;;;;;;4921043;28;20044;-72
2021/08/05 10:32:39;;;;;;;12.75;2.83;;;26.40;96.70;;;;;;4901716;29;20142;-73
2021/08/05 10:35:09;;;;;;;9.48;2.17;;;26.10;96.70;;;;;;4919459;28;20048;-72
2021/08/05 10:37:38;;;;;;;6.90;2.10;;;26.00;96.70;;;;;;4908335;29;20044;-73
2021/08/05 10:40:10;;;;;;;9.27;2.40;;;26.10;96.70;;;;;;4906767;29;20068;-73
2021/08/05 10:42:41;;;;;;;9.73;2.28;;;26.00;96.70;;;;;;4909340;29;20610;-73
2021/08/05 10:45:11;;;;;;;7.43;2.22;;;26.10;96.70;;;;;;4906490;29;20044;-72
2021/08/05 10:47:41;;;;;;;8.00;1.80;;;26.10;96.70;;;;;;4922902;29;20418;-73
2021/08/05 10:50:14;;;;;;;9.20;2.00;;;26.10;96.70;;;;;;4905002;29;20811;-73
2021/08/05 10:52:44;;;;;;;11.75;2.35;;;26.20;96.70;;;;;;4928139;29;20052;-73
2021/08/05 10:55:28;;;;;;;10.88;2.13;;;26.40;96.70;;;;;;4908051;29;20078;-73
2021/08/05 10:58:17;;;;;;;10.18;2.88;;;26.40;96.70;;;;;;4906734;29;20497;-73
2021/08/05 11:01:04;;;;;;;8.30;1.88;;;26.20;96.70;;;;;;4921866;29;20462;-73
2021/08/05 11:03:46;;;;;;;10.73;2.17;;;26.20;96.70;;;;;;4920207;29;20048;-73
2021/08/05 11:06:29;;;;;;;10.15;1.67;;;25.90;96.70;;;;;;4908589;29;20044;-73
2021/08/05 11:09:28;;;;;;;9.65;2.30;;;25.80;96.70;;;;;;4907611;29;20055;-73
2021/08/05 11:12:41;;;;;;;10.05;1.95;;;26.00;96.70;;;;;;4903284;29;20608;-73
2021/08/05 11:15:42;;;;;;;9.65;1.58;;;26.10;96.70;;;;;;4908200;29;20406;-73
2021/08/05 11:18:18;;;;;;;9.32;1.83;;;26.30;96.70;;;;;;4932830;28;20710;-73
2021/08/05 11:21:07;;;;;;;7.23;2.23;;;26.70;96.70;;;;;;4909847;29;20048;-73
2021/08/05 11:23:39;;;;;;;9.60;1.90;;;26.70;96.70;;;;;;4907814;29;20059;-73
2021/08/05 11:26:09;;;;;;;9.30;2.13;;;26.90;96.70;;;;;;4917505;29;20047;-73
2021/08/05 11:28:51;;;;;;;7.13;1.52;;;27.00;96.70;;;;;;4906696;29;20127;-73
2021/08/05 11:31:38;;;;;;;10.10;1.90;;;26.60;96.70;;;;;;4912451;29;20049;-73
2021/08/05 11:34:12;;;;;;;9.25;2.15;;;26.40;96.70;;;;;;4922585;29;20219;-73
2021/08/05 11:36:46;;;;;;;8.90;2.00;;;26.30;96.70;;;;;;4908627;29;20040;-73
2021/08/05 11:39:21;;;;;;;9.15;2.00;;;26.10;96.70;;;;;;4911957;29;20099;-73
2021/08/05 11:42:03;;;;;;;6.32;1.40;;;26.20;96.70;;;;;;4906072;29;20056;-73
2021/08/05 11:44:39;;;;;;;12.43;1.88;;;26.00;96.70;;;;;;4938003;28;20155;-73
2021/08/05 11:47:46;;;;;;;7.05;2.10;;;25.90;96.70;;;;;;4905612;29;20111;-73
2021/08/05 11:50:19;;;;;;;7.57;1.93;;;26.30;96.70;;;;;;4901129;29;20480;-73
2021/08/05 11:53:08;;;;;;;6.50;1.48;;;26.30;96.70;;;;;;4906361;29;20668;-73
2021/08/05 11:55:38;;;;;;;7.50;2.03;;;26.40;96.70;;;;;;4907027;29;20358;-73
2021/08/05 11:58:06;;;;;;;6.65;1.55;;;26.70;96.70;;;;;;4907974;29;20044;-73
2021/08/05 12:00:40;;;;;;;10.07;2.20;;;26.90;96.70;;;;;;4906288;29;20433;-73
2021/08/05 12:03:11;;;;;;;9.60;2.20;;;26.80;96.70;;;;;;4902918;29;20151;-73
2021/08/05 12:05:41;;;;;;;8.73;1.65;;;26.70;96.70;;;;;;4938408;28;20052;-73
2021/08/05 12:08:10;;;;;;;9.57;1.70;;;26.70;96.70;;;;;;4907284;29;20499;-72
2021/08/05 12:10:40;;;;;;;6.57;1.67;;;26.80;96.70;;;;;;4905219;29;20111;-72
2021/08/05 12:13:13;;;;;;;9.10;1.73;;;26.60;96.70;;;;;;4907354;29;20058;-73
2021/08/05 12:15:46;;;;;;;11.00;1.98;;;26.50;96.70;;;;;;4916654;28;20546;-72
2021/08/05 12:18:16;;;;;;;9.25;2.17;;;26.60;96.70;;;;;;4908228;29;20051;-72
2021/08/05 12:20:46;;;;;;;5.47;1.38;;;27.00;96.70;;;;;;4906704;29;20175;-73
2021/08/05 12:23:34;;;;;;;8.45;1.63;;;27.20;96.70;;;;;;4921621;29;20040;-73
2021/08/05 12:26:06;;;;;;;7.20;1.83;;;27.10;96.70;;;;;;4904386;29;20125;-72
2021/08/05 12:28:37;;;;;;;7.95;1.75;;;26.70;96.70;;;;;;4906315;29;20040;-73
2021/08/05 12:31:08;;;;;;;6.07;1.60;;;26.70;96.70;;;;;;4920644;29;20489;-73
2021/08/05 12:33:41;;;;;;;7.57;1.63;;;26.80;96.70;;;;;;4904481;29;20048;-73
2021/08/05 12:36:12;;;;;;;4.05;1.20;;;27.20;96.70;;;;;;4920381;29;20126;-73
2021/08/05 12:38:46;;;;;;;7.82;1.70;;;27.40;96.70;;;;;;4906289;29;20035;-72
2021/08/05 12:41:18;;;;;;;7.57;1.45;;;27.50;96.70;;;;;;4907636;29;20483;-73
2021/08/05 12:43:50;;;;;;;3.95;1.13;;;27.50;96.70;;;;;;4904972;29;20036;-73
2021/08/05 12:46:20;;;;;;;6.47;1.50;;;27.40;96.70;;;;;;4920936;28;20044;-72
2021/08/05 12:48:52;;;;;;;6.00;1.50;;;27.10;96.70;;;;;;4934784;29;20058;-73
2021/08/05 12:51:21;;;;;;;8.55;2.10;;;27.00;96.70;;;;;;4906973;29;20131;-73
2021/08/05 12:53:49;;;;;;;7.25;1.25;;;27.00;96.70;;;;;;4904682;29;20048;-73
2021/08/05 12:56:17;;;;;;;5.22;1.50;;;26.80;96.70;;;;;;4907294;29;20098;-73
2021/08/05 12:58:57;;;;;;;7.20;1.70;;;26.70;96.70;;;;;;4904810;29;20044;-73
2021/08/05 13:01:26;;;;;;;8.93;2.30;;;26.70;96.70;;;;;;4907454;29;20059;-73
2021/08/05 13:03:55;;;;;;;8.43;1.90;;;26.80;96.70;;;;;;4902639;29;20048;-72
2021/08/05 13:06:23;;;;;;;10.70;2.03;;;27.10;96.70;;;;;;4919508;28;20040;-73
2021/08/05 13:08:52;;;;;;;8.23;1.67;;;27.00;96.70;;;;;;4906089;29;20518;-72
2021/08/05 13:11:37;;;;;;;9.07;2.13;;;27.00;96.70;;;;;;4909101;29;20099;-73
2021/08/05 13:14:05;;;;;;;4.90;1.65;;;27.00;96.70;;;;;;4908208;29;20036;-73
2021/08/05 13:16:36;;;;;;;7.68;1.75;;;27.20;96.70;;;;;;4910378;29;20538;-73
2021/08/05 13:19:10;;;;;;;8.25;1.63;;;27.30;96.70;;;;;;4938853;28;20059;-73